Terminal Aerodrome Forecast
Issued by NWS

Home | Current Version | Previous Version | Text Only | Print | Product List | Glossary On
Versions: 1 2 3 4 5 6 7 8 9 10 11 12 13 14 15 16 17 18 19 20
000
FTUS43 KILX 260100 AAA
TAFBMI
TAF AMD
KBMI 260145Z 2602/2624 02016G25KT P6SM OVC015
     FM260500 01009KT P6SM SCT035
     FM261400 30004KT P6SM SCT015 BKN050
     FM261900 20007KT P6SM BKN025=

USA.gov is the U.S. government's official web portal to all federal, state and local government web resources and services.